Terminal Aerodrome Forecast
Issued by NWS

Home | Current Version | Previous Version | Text Only | Print | Product List | Glossary On
Versions: 1 2 3 4 5 6 7 8 9 10 11 12 13
014
FTUS42 KTAE 271720
TAFVLD
TAF
KVLD 271720Z 2718/2818 18005KT P6SM SCT050
     FM280800 21003KT 6SM BR FEW004
     FM281100 VRB02KT 2SM BR SCT003
     FM281300 22003KT 5SM BR FEW003
     FM281400 24008KT P6SM BKN250=

USA.gov is the U.S. government's official web portal to all federal, state and local government web resources and services.